Time;durP1;ratioP1;P1;durP2;ratioP2;P2;SDS_P1;SDS_P2;PMS_P1;PMS_P2;Temp;Humidity;BMP_temperature;BMP_pressure;BME280_temperature;BME280_humidity;BME280_pressure;Samples;Min_cycle;Max_cycle;Signal;HPM_P1;HPM_P2
2022/01/26 00:07:16;;;;;;;35.77;14.30;;;2.30;99.90;;;;;;5030672;28;20463;-69
2022/01/26 00:09:43;;;;;;;38.87;14.90;;;2.10;99.90;;;;;;5029909;28;20436;-70
2022/01/26 00:12:09;;;;;;;34.93;14.03;;;2.10;99.90;;;;;;5029931;28;20687;-69
2022/01/26 00:14:38;;;;;;;37.87;14.83;;;2.00;99.90;;;;;;5031060;28;20437;-70
2022/01/26 00:17:03;;;;;;;36.57;14.73;;;1.90;99.90;;;;;;5028123;28;20407;-71
2022/01/26 00:19:44;;;;;;;36.90;15.60;;;2.00;99.90;;;;;;5029869;28;20420;-69
2022/01/26 00:22:11;;;;;;;40.47;15.87;;;1.90;99.90;;;;;;5029318;28;20200;-69
2022/01/26 00:27:24;;;;;;;35.47;14.17;;;2.00;99.90;;;;;;5031565;28;20519;-70
2022/01/26 00:30:00;;;;;;;46.07;16.37;;;1.90;99.90;;;;;;5025038;28;20170;-70
2022/01/26 00:41:02;;;;;;;40.80;14.93;;;2.10;99.90;;;;;;5005763;28;20448;-70
2022/01/26 00:43:28;;;;;;;46.67;16.43;;;2.30;99.90;;;;;;5029891;28;20436;-70
2022/01/26 00:45:58;;;;;;;43.37;15.43;;;2.10;99.90;;;;;;5027168;28;20495;-70
2022/01/26 00:48:25;;;;;;;43.00;16.23;;;2.10;99.90;;;;;;5028065;28;20185;-71
2022/01/26 00:50:52;;;;;;;43.13;17.33;;;2.00;99.90;;;;;;5038318;28;20463;-70
2022/01/26 00:53:27;;;;;;;58.50;18.17;;;2.30;99.90;;;;;;5028839;28;20460;-71
2022/01/26 00:55:52;;;;;;;42.90;16.63;;;2.00;99.90;;;;;;5036885;28;20950;-71
2022/01/26 00:58:18;;;;;;;43.83;16.50;;;2.20;99.90;;;;;;5029551;28;20492;-71
2022/01/26 01:00:44;;;;;;;43.77;16.63;;;1.90;99.90;;;;;;5028783;28;20209;-70
2022/01/26 01:03:10;;;;;;;46.83;15.67;;;1.90;99.90;;;;;;5028525;28;20504;-72
2022/01/26 01:05:42;;;;;;;43.63;16.53;;;2.10;99.90;;;;;;5028951;28;20207;-70
2022/01/26 01:08:13;;;;;;;43.37;15.37;;;2.10;99.90;;;;;;5028044;28;20224;-70
2022/01/26 01:10:42;;;;;;;46.37;15.97;;;2.00;99.90;;;;;;5027556;28;20436;-70
2022/01/26 01:13:14;;;;;;;45.90;16.70;;;2.00;99.90;;;;;;5029187;28;20462;-70
2022/01/26 01:15:40;;;;;;;46.37;15.37;;;2.20;99.90;;;;;;5028814;28;20428;-70
2022/01/26 01:18:19;;;;;;;40.93;16.17;;;2.50;99.90;;;;;;5029354;28;20950;-70
2022/01/26 01:31:26;;;;;;;52.30;15.63;;;2.00;99.90;;;;;;5025637;28;20529;-70
2022/01/26 01:33:51;;;;;;;53.30;17.93;;;2.00;99.90;;;;;;5019076;28;20428;-69
2022/01/26 01:36:17;;;;;;;40.57;16.00;;;2.20;99.90;;;;;;5037043;28;20804;-72
2022/01/26 01:38:44;;;;;;;48.80;16.07;;;1.90;99.90;;;;;;5029673;28;20188;-70
2022/01/26 01:41:09;;;;;;;45.83;17.40;;;1.80;99.90;;;;;;5026838;28;20447;-71
2022/01/26 01:43:37;;;;;;;48.73;17.47;;;1.80;99.90;;;;;;5028898;28;20421;-70
2022/01/26 01:46:03;;;;;;;45.87;16.60;;;1.80;99.90;;;;;;5027525;28;20276;-72
2022/01/26 01:48:31;;;;;;;49.97;17.13;;;1.80;99.90;;;;;;5028794;28;20495;-71
2022/01/26 01:51:00;;;;;;;43.23;16.57;;;1.80;99.90;;;;;;5028582;28;20602;-70
2022/01/26 01:53:35;;;;;;;58.30;17.37;;;1.70;99.90;;;;;;5027859;28;20965;-70
2022/01/26 01:56:01;;;;;;;52.23;16.60;;;1.80;99.90;;;;;;5036309;28;20965;-71
2022/01/26 01:58:27;;;;;;;47.07;14.93;;;1.80;99.90;;;;;;5029372;28;20419;-71
2022/01/26 02:00:53;;;;;;;36.70;14.50;;;1.70;99.90;;;;;;5027980;28;20887;-72
2022/01/26 02:03:19;;;;;;;39.90;15.43;;;1.60;99.90;;;;;;5027624;28;20639;-70
2022/01/26 02:05:44;;;;;;;42.77;15.60;;;1.70;99.90;;;;;;5028028;28;20174;-71
2022/01/26 02:08:10;;;;;;;34.10;14.33;;;2.00;99.90;;;;;;5028256;28;20547;-70
2022/01/26 02:10:37;;;;;;;39.37;15.63;;;1.70;99.90;;;;;;5028066;28;20178;-71
2022/01/26 02:13:12;;;;;;;53.17;15.80;;;1.90;99.90;;;;;;5028189;28;20247;-71
2022/01/26 02:15:49;;;;;;;38.03;15.70;;;1.80;99.90;;;;;;5027151;28;20423;-71
2022/01/26 02:56:26;;;;;;;58.07;17.20;;;1.80;99.90;;;;;;5037481;28;20947;-71
2022/01/26 02:59:32;;;;;;;56.33;17.20;;;2.30;99.90;;;;;;5028440;28;20431;-70
2022/01/26 03:06:55;;;;;;;42.43;14.80;;;1.80;99.90;;;;;;5027706;28;20404;-70
2022/01/26 03:09:27;;;;;;;40.23;15.00;;;2.20;99.90;;;;;;5027754;28;20538;-71
2022/01/26 03:11:53;;;;;;;43.53;15.97;;;1.90;99.90;;;;;;5026571;28;20472;-71
2022/01/26 03:19:45;;;;;;;49.33;15.83;;;1.90;99.90;;;;;;5028986;28;20420;-70
2022/01/26 03:30:26;;;;;;;33.20;12.07;;;1.80;99.90;;;;;;5031914;28;20419;-72
2022/01/26 03:35:41;;;;;;;27.63;12.30;;;1.80;99.90;;;;;;5031626;28;20408;-71
2022/01/26 03:38:08;;;;;;;28.50;12.30;;;1.90;99.90;;;;;;5029951;28;20523;-72
2022/01/26 03:40:37;;;;;;;35.07;12.90;;;1.90;99.90;;;;;;5030450;28;20554;-71
2022/01/26 03:43:05;;;;;;;28.63;12.57;;;2.20;99.90;;;;;;5032617;28;20808;-71
2022/01/26 03:45:31;;;;;;;28.87;12.63;;;1.90;99.90;;;;;;5030955;28;20919;-71
2022/01/26 03:47:56;;;;;;;29.43;11.23;;;2.20;99.90;;;;;;5030831;28;20478;-70
2022/01/26 03:50:24;;;;;;;30.70;11.53;;;2.00;99.90;;;;;;5031623;28;20206;-70
2022/01/26 03:52:49;;;;;;;23.23;11.23;;;2.00;99.90;;;;;;5030474;28;20580;-71
2022/01/26 03:55:15;;;;;;;22.53;8.90;;;2.40;99.90;;;;;;5039296;28;20407;-70
2022/01/26 03:57:40;;;;;;;19.87;9.00;;;2.50;99.90;;;;;;5029364;28;20209;-70
2022/01/26 04:00:08;;;;;;;18.63;8.83;;;2.10;99.90;;;;;;5031591;28;20697;-72
2022/01/26 04:02:34;;;;;;;17.50;8.70;;;2.10;99.90;;;;;;5028359;28;20197;-70
2022/01/26 04:05:04;;;;;;;19.37;9.17;;;2.00;99.90;;;;;;5030941;28;20456;-72
2022/01/26 04:07:29;;;;;;;21.87;10.27;;;2.00;99.90;;;;;;5029273;28;20446;-71
2022/01/26 04:10:08;;;;;;;20.20;9.53;;;2.30;99.90;;;;;;5031014;28;20440;-70
2022/01/26 04:12:36;;;;;;;25.90;10.97;;;2.00;99.90;;;;;;5030001;28;20201;-71
2022/01/26 04:15:10;;;;;;;32.67;13.53;;;2.30;99.90;;;;;;5031161;28;20405;-71
2022/01/26 04:17:35;;;;;;;24.37;11.63;;;2.30;99.90;;;;;;5030166;28;20512;-71
2022/01/26 04:20:01;;;;;;;29.03;11.63;;;1.90;99.90;;;;;;5031166;28;20511;-70
2022/01/26 04:22:35;;;;;;;25.90;12.07;;;1.90;99.90;;;;;;5030417;28;20198;-71
2022/01/26 04:25:02;;;;;;;26.63;12.20;;;2.30;99.90;;;;;;5039281;28;20707;-71
2022/01/26 04:29:56;;;;;;;33.23;11.73;;;1.90;99.90;;;;;;5030930;28;20787;-71
2022/01/26 04:32:23;;;;;;;32.50;13.30;;;1.80;99.90;;;;;;5025168;28;20514;-72
2022/01/26 04:34:49;;;;;;;24.60;10.80;;;2.30;99.90;;;;;;5029081;28;20170;-71
2022/01/26 04:37:28;;;;;;;26.30;11.67;;;1.90;99.90;;;;;;5030280;28;20432;-71
2022/01/26 04:39:59;;;;;;;25.87;11.20;;;2.20;99.90;;;;;;5030781;28;20419;-71
2022/01/26 04:42:54;;;;;;;22.83;10.37;;;1.90;99.90;;;;;;5029729;28;20543;-71
2022/01/26 04:45:11;;;;;;;32.00;12.40;;;2.20;99.90;;;;;;5024987;28;20426;-71
2022/01/26 04:47:38;;;;;;;31.27;12.33;;;1.90;99.90;;;;;;5026930;28;20427;-71
2022/01/26 04:50:05;;;;;;;32.53;13.50;;;2.30;99.90;;;;;;5030811;28;20466;-71
2022/01/26 04:52:31;;;;;;;26.90;12.50;;;2.00;99.90;;;;;;5029272;28;20797;-71
2022/01/26 04:54:57;;;;;;;26.43;11.83;;;2.00;99.90;;;;;;5037146;28;20418;-71
2022/01/26 04:57:22;;;;;;;25.50;11.70;;;2.30;99.90;;;;;;5030550;28;20183;-71
2022/01/26 04:59:48;;;;;;;26.90;12.67;;;2.00;99.90;;;;;;5027657;28;20173;-72
2022/01/26 05:02:14;;;;;;;30.83;11.50;;;2.00;99.90;;;;;;5029565;28;20225;-70
2022/01/26 05:04:39;;;;;;;23.33;11.27;;;2.00;99.90;;;;;;5027742;28;20177;-71
2022/01/26 05:07:05;;;;;;;27.67;10.90;;;2.10;99.90;;;;;;5030212;28;20280;-71
2022/01/26 05:09:31;;;;;;;25.90;11.70;;;2.00;99.90;;;;;;5029705;28;20206;-71
2022/01/26 05:11:57;;;;;;;22.60;11.03;;;2.10;99.90;;;;;;5026905;28;20334;-71
2022/01/26 05:14:23;;;;;;;25.50;11.10;;;1.70;99.90;;;;;;5028772;28;20181;-71
2022/01/26 05:16:49;;;;;;;29.53;11.20;;;2.00;99.90;;;;;;5029285;28;20173;-69
2022/01/26 05:19:15;;;;;;;21.23;11.20;;;2.00;99.90;;;;;;5028665;28;20572;-71
2022/01/26 05:21:41;;;;;;;24.20;12.00;;;2.00;99.90;;;;;;5028936;28;20424;-70
2022/01/26 05:24:08;;;;;;;19.77;10.10;;;2.20;99.90;;;;;;5025318;28;20166;-70
2022/01/26 05:26:33;;;;;;;23.60;10.50;;;2.50;99.90;;;;;;5028774;28;20520;-71
2022/01/26 05:28:59;;;;;;;25.00;10.20;;;2.00;99.90;;;;;;5028618;28;20456;-72
2022/01/26 05:31:24;;;;;;;19.70;10.20;;;1.90;99.90;;;;;;5028301;28;20280;-70
2022/01/26 05:33:50;;;;;;;26.20;11.50;;;2.10;99.90;;;;;;5028820;28;20174;-71
2022/01/26 05:36:16;;;;;;;22.00;10.67;;;1.90;99.90;;;;;;5028943;28;20247;-70
2022/01/26 05:38:42;;;;;;;27.33;10.27;;;2.00;99.90;;;;;;5029247;28;20417;-72
2022/01/26 05:41:09;;;;;;;24.00;10.37;;;2.00;99.90;;;;;;5027901;28;20201;-72
2022/01/26 05:43:35;;;;;;;27.10;11.50;;;2.00;99.90;;;;;;5028562;28;20408;-70
2022/01/26 05:46:07;;;;;;;29.77;11.80;;;2.00;99.90;;;;;;5026017;28;20436;-70
2022/01/26 05:48:34;;;;;;;23.50;11.03;;;2.10;99.90;;;;;;5017689;28;20934;-71
2022/01/26 05:51:07;;;;;;;23.70;11.37;;;2.00;99.90;;;;;;5028944;28;20468;-71
2022/01/26 05:53:34;;;;;;;26.33;10.97;;;1.70;99.90;;;;;;5029100;28;20459;-71
2022/01/26 05:56:00;;;;;;;27.90;11.43;;;2.50;99.90;;;;;;5032264;28;20846;-70
2022/01/26 05:58:26;;;;;;;25.33;10.73;;;1.90;99.90;;;;;;5028188;28;20424;-71
2022/01/26 06:00:51;;;;;;;33.00;12.30;;;2.00;99.90;;;;;;5027689;28;20202;-71
2022/01/26 06:03:17;;;;;;;31.77;11.77;;;2.00;99.90;;;;;;5028236;28;20181;-72
2022/01/26 06:05:42;;;;;;;29.70;11.47;;;2.00;99.90;;;;;;5028153;28;20210;-70
2022/01/26 06:08:08;;;;;;;27.60;11.50;;;2.00;99.90;;;;;;5026809;28;20524;-71
2022/01/26 06:10:34;;;;;;;24.70;11.30;;;1.90;99.90;;;;;;5028249;28;20687;-71
2022/01/26 06:12:59;;;;;;;31.47;12.50;;;1.90;99.90;;;;;;5027652;28;20435;-70
2022/01/26 06:15:25;;;;;;;26.47;12.10;;;2.00;99.90;;;;;;5027418;28;20281;-71
2022/01/26 06:17:51;;;;;;;27.40;11.43;;;2.00;99.90;;;;;;5028489;28;20588;-71
2022/01/26 06:20:16;;;;;;;26.27;12.00;;;1.90;99.90;;;;;;5027801;28;20166;-70
2022/01/26 06:22:42;;;;;;;26.10;12.17;;;1.90;99.90;;;;;;5028164;28;20209;-72
2022/01/26 06:25:09;;;;;;;31.43;12.83;;;1.80;99.90;;;;;;5036525;28;20185;-71
2022/01/26 06:27:36;;;;;;;31.23;12.17;;;2.00;99.90;;;;;;5044819;28;20181;-70
2022/01/26 06:30:04;;;;;;;30.83;11.40;;;1.80;99.90;;;;;;5028240;28;20425;-71
2022/01/26 06:32:30;;;;;;;27.30;12.87;;;1.80;99.90;;;;;;5027466;28;20464;-71
2022/01/26 06:34:55;;;;;;;31.53;12.10;;;1.90;99.90;;;;;;5027776;28;20405;-71
2022/01/26 06:37:21;;;;;;;30.00;10.87;;;1.90;99.90;;;;;;5026670;28;20490;-71
2022/01/26 06:39:47;;;;;;;28.30;12.40;;;2.30;99.90;;;;;;5027830;28;20570;-70
2022/01/26 06:42:15;;;;;;;28.60;11.70;;;1.90;99.90;;;;;;5026162;28;20206;-70
2022/01/26 06:44:54;;;;;;;30.33;11.70;;;2.00;99.90;;;;;;5026950;28;20706;-71
2022/01/26 06:49:53;;;;;;;28.07;11.93;;;2.00;99.90;;;;;;5027545;28;20429;-71
2022/01/26 06:52:19;;;;;;;26.27;10.93;;;2.00;99.90;;;;;;5027591;28;20467;-71
2022/01/26 06:54:44;;;;;;;30.13;10.67;;;1.90;99.90;;;;;;5036061;28;20174;-71
2022/01/26 06:57:10;;;;;;;23.93;10.43;;;2.00;99.90;;;;;;5027484;28;20407;-70
2022/01/26 06:59:35;;;;;;;26.10;10.90;;;2.20;99.90;;;;;;5027806;28;20174;-69
2022/01/26 07:02:01;;;;;;;22.30;10.77;;;2.00;99.90;;;;;;5025611;28;20581;-71
2022/01/26 07:04:27;;;;;;;27.50;10.80;;;1.90;99.90;;;;;;5022137;28;20190;-71
2022/01/26 07:06:52;;;;;;;23.73;11.00;;;2.00;99.90;;;;;;5026492;28;20626;-71
2022/01/26 07:09:19;;;;;;;23.57;10.77;;;2.00;99.90;;;;;;5027925;28;20622;-71
2022/01/26 07:11:47;;;;;;;26.90;12.53;;;2.10;99.90;;;;;;5027203;28;20194;-71
2022/01/26 07:14:25;;;;;;;23.30;11.40;;;2.10;99.90;;;;;;5028248;28;20401;-71
2022/01/26 07:19:56;;;;;;;21.90;10.43;;;2.20;99.90;;;;;;5020709;28;20766;-71
2022/01/26 07:22:21;;;;;;;30.13;11.97;;;2.20;99.90;;;;;;5025326;28;20583;-71
2022/01/26 07:24:47;;;;;;;26.93;11.03;;;2.20;99.90;;;;;;5027166;28;20941;-71
2022/01/26 07:27:13;;;;;;;25.13;11.27;;;2.60;99.90;;;;;;5045006;28;20669;-71
2022/01/26 07:29:38;;;;;;;29.10;12.83;;;2.20;99.90;;;;;;5030966;28;20491;-71
2022/01/26 07:32:06;;;;;;;30.50;12.10;;;2.30;99.90;;;;;;5026510;28;20591;-71
2022/01/26 07:34:32;;;;;;;25.90;10.80;;;2.50;99.90;;;;;;5024809;28;20174;-71
2022/01/26 07:37:02;;;;;;;24.20;11.37;;;2.50;99.90;;;;;;5028541;28;20929;-70
2022/01/26 07:39:40;;;;;;;22.20;10.10;;;2.60;99.90;;;;;;5022715;28;20392;-70
2022/01/26 07:42:06;;;;;;;21.13;9.60;;;2.50;99.90;;;;;;5020874;28;20459;-71
2022/01/26 07:44:32;;;;;;;21.60;9.87;;;2.50;99.90;;;;;;5028198;28;20790;-70
2022/01/26 07:46:57;;;;;;;24.40;11.00;;;2.90;99.90;;;;;;5026858;28;20420;-73
2022/01/26 07:49:23;;;;;;;21.10;9.97;;;2.60;99.90;;;;;;5029278;28;20269;-71
2022/01/26 07:51:50;;;;;;;19.33;9.03;;;4.70;99.90;;;;;;5024693;28;20209;-71
2022/01/26 07:54:18;;;;;;;22.07;9.60;;;2.50;99.90;;;;;;5027756;28;20247;-71
2022/01/26 07:56:44;;;;;;;20.07;10.07;;;2.50;99.90;;;;;;5027605;28;20511;-71
2022/01/26 07:59:09;;;;;;;22.07;10.20;;;2.50;99.90;;;;;;5029642;28;20429;-71
2022/01/26 08:01:35;;;;;;;17.77;10.27;;;2.40;99.90;;;;;;5027963;28;20439;-71
2022/01/26 08:04:01;;;;;;;21.63;10.93;;;2.40;99.90;;;;;;5026898;28;20260;-71
2022/01/26 08:06:26;;;;;;;22.70;9.53;;;2.40;99.90;;;;;;5030184;28;20174;-71
2022/01/26 08:08:52;;;;;;;22.40;10.37;;;2.40;99.90;;;;;;5031985;28;20193;-70
2022/01/26 08:11:17;;;;;;;16.50;8.03;;;2.40;99.90;;;;;;5045902;28;20193;-72
2022/01/26 08:13:44;;;;;;;16.00;8.00;;;2.40;99.90;;;;;;5040592;28;20234;-70
2022/01/26 08:16:10;;;;;;;12.30;7.77;;;2.30;99.90;;;;;;5035809;28;20421;-71
2022/01/26 08:18:35;;;;;;;15.53;8.50;;;2.50;99.90;;;;;;5031607;28;20186;-72
2022/01/26 08:21:05;;;;;;;23.17;12.20;;;2.20;99.90;;;;;;5031230;28;20238;-70
2022/01/26 08:23:31;;;;;;;17.13;9.57;;;2.20;99.90;;;;;;5031132;28;20186;-72
2022/01/26 08:25:56;;;;;;;14.83;8.80;;;2.30;99.90;;;;;;5039324;28;20475;-70
2022/01/26 08:28:28;;;;;;;15.93;8.70;;;2.40;99.90;;;;;;5043786;28;20184;-71
2022/01/26 08:30:54;;;;;;;17.40;8.83;;;2.30;99.90;;;;;;5042618;28;20205;-72
2022/01/26 08:33:20;;;;;;;18.20;8.73;;;2.30;99.90;;;;;;5044545;28;20460;-70
2022/01/26 08:35:46;;;;;;;18.40;9.87;;;2.40;99.90;;;;;;5042503;28;20246;-70
2022/01/26 08:38:12;;;;;;;20.60;9.60;;;2.40;99.90;;;;;;5035881;28;20529;-70
2022/01/26 08:40:38;;;;;;;15.33;8.97;;;2.40;99.90;;;;;;5030609;28;20474;-70
2022/01/26 08:43:04;;;;;;;19.93;8.87;;;2.70;99.90;;;;;;5030928;28;20186;-70
2022/01/26 08:45:30;;;;;;;15.50;8.67;;;2.40;99.90;;;;;;5029548;28;20433;-72
2022/01/26 08:47:55;;;;;;;15.40;8.40;;;2.70;99.90;;;;;;5030676;28;20421;-71
2022/01/26 08:50:21;;;;;;;18.20;10.27;;;2.40;99.90;;;;;;5036677;28;20177;-71
2022/01/26 08:52:47;;;;;;;13.30;8.43;;;2.40;99.90;;;;;;5029487;28;20298;-71
2022/01/26 08:55:13;;;;;;;13.90;8.20;;;2.40;99.90;;;;;;5039555;28;20169;-71
2022/01/26 08:57:39;;;;;;;12.83;7.80;;;2.40;99.90;;;;;;5025590;28;20425;-72
2022/01/26 09:00:08;;;;;;;12.70;8.23;;;2.30;99.90;;;;;;5030971;28;20428;-71
2022/01/26 09:02:34;;;;;;;12.27;7.50;;;2.30;99.90;;;;;;5030042;28;20337;-71
2022/01/26 09:05:00;;;;;;;13.37;8.00;;;2.40;99.90;;;;;;5035982;28;20428;-70
2022/01/26 09:07:25;;;;;;;11.10;7.23;;;2.80;99.90;;;;;;5038136;28;20450;-70
2022/01/26 09:09:51;;;;;;;14.40;8.30;;;2.40;99.90;;;;;;5030960;28;20197;-72
2022/01/26 09:12:19;;;;;;;13.03;7.47;;;2.30;99.90;;;;;;5027252;28;20217;-72
2022/01/26 09:14:45;;;;;;;16.80;8.40;;;2.30;99.90;;;;;;5030213;28;20178;-74
2022/01/26 09:17:12;;;;;;;15.03;8.80;;;2.30;99.90;;;;;;5031776;28;20954;-71
2022/01/26 09:19:41;;;;;;;14.63;8.73;;;2.40;99.90;;;;;;5029816;28;20478;-71
2022/01/26 09:22:09;;;;;;;14.87;8.70;;;2.50;99.90;;;;;;5029053;28;20852;-72
2022/01/26 09:24:36;;;;;;;17.87;9.50;;;2.60;99.90;;;;;;5029347;28;20515;-71
2022/01/26 09:27:04;;;;;;;17.67;9.00;;;2.90;99.90;;;;;;5037037;28;20471;-71
2022/01/26 09:29:31;;;;;;;13.40;8.17;;;2.70;99.90;;;;;;5020743;28;20429;-69
2022/01/26 09:31:57;;;;;;;19.10;9.00;;;2.70;99.90;;;;;;5027306;28;20567;-70
2022/01/26 09:34:26;;;;;;;15.17;8.40;;;3.10;99.90;;;;;;5026916;28;20420;-71
2022/01/26 09:36:52;;;;;;;20.20;9.27;;;3.10;99.90;;;;;;5033246;28;20425;-72
2022/01/26 09:39:20;;;;;;;17.53;9.40;;;2.80;99.90;;;;;;5039691;28;20723;-71
2022/01/26 09:41:48;;;;;;;20.77;10.23;;;2.60;99.90;;;;;;5027371;28;20328;-72
2022/01/26 09:44:15;;;;;;;18.50;9.30;;;3.10;99.90;;;;;;5029643;28;21088;-70
2022/01/26 09:46:41;;;;;;;23.33;9.77;;;2.50;99.90;;;;;;5028726;28;20456;-71
2022/01/26 09:49:07;;;;;;;15.93;8.60;;;2.80;99.90;;;;;;5027418;28;20436;-71
2022/01/26 09:51:40;;;;;;;17.43;9.73;;;2.50;99.90;;;;;;5027735;28;20437;-71
2022/01/26 09:54:11;;;;;;;25.43;10.57;;;2.70;99.90;;;;;;5030885;28;20804;-71
2022/01/26 09:56:37;;;;;;;17.73;10.30;;;2.60;99.90;;;;;;5028227;28;20833;-74
2022/01/26 09:59:03;;;;;;;22.07;11.00;;;2.40;99.90;;;;;;5028753;28;20491;-71
2022/01/26 10:01:40;;;;;;;21.83;10.20;;;2.40;99.90;;;;;;5029024;28;20197;-71
2022/01/26 10:04:05;;;;;;;20.50;10.73;;;2.30;99.90;;;;;;5026403;28;20435;-72
2022/01/26 10:06:32;;;;;;;25.93;10.80;;;2.40;99.90;;;;;;5028804;28;20428;-70
2022/01/26 10:09:37;;;;;;;23.33;11.00;;;2.70;99.90;;;;;;5028790;28;20438;-72
2022/01/26 10:17:42;;;;;;;37.53;14.17;;;2.30;99.90;;;;;;5021367;28;20479;-70
2022/01/26 10:20:14;;;;;;;32.00;13.37;;;2.60;99.90;;;;;;5028033;28;20942;-70
2022/01/26 10:22:40;;;;;;;30.97;13.73;;;2.00;99.90;;;;;;5029010;28;20448;-73
2022/01/26 10:25:19;;;;;;;32.57;14.80;;;2.30;99.90;;;;;;5028931;28;20451;-70
2022/01/26 10:27:49;;;;;;;42.30;16.30;;;2.00;99.90;;;;;;5016092;28;20668;-73
2022/01/26 10:30:18;;;;;;;32.50;13.90;;;1.80;99.90;;;;;;5028741;28;20432;-71
2022/01/26 10:32:45;;;;;;;34.50;15.60;;;2.00;99.90;;;;;;5025859;28;20472;-70
2022/01/26 10:35:13;;;;;;;36.60;16.87;;;2.30;99.90;;;;;;5029743;28;20424;-71
2022/01/26 10:37:48;;;;;;;39.73;16.30;;;1.80;99.90;;;;;;5029246;28;20945;-72
2022/01/26 10:40:18;;;;;;;37.30;16.10;;;1.90;99.90;;;;;;5028628;28;20915;-72
2022/01/26 10:43:00;;;;;;;40.53;16.50;;;1.90;99.90;;;;;;5029238;28;20890;-71
2022/01/26 10:46:04;;;;;;;34.50;14.93;;;1.90;99.90;;;;;;5026735;28;20440;-71
2022/01/26 10:48:53;;;;;;;39.63;17.43;;;2.00;99.90;;;;;;5029135;28;20432;-70
2022/01/26 10:51:35;;;;;;;34.57;15.17;;;1.90;99.90;;;;;;5028970;28;20476;-70
2022/01/26 10:54:11;;;;;;;32.33;15.00;;;2.30;99.90;;;;;;5036877;28;20825;-71
2022/01/26 10:56:38;;;;;;;35.87;15.60;;;1.80;99.90;;;;;;5021808;28;20493;-72
2022/01/26 10:59:03;;;;;;;36.57;14.30;;;2.30;99.90;;;;;;5031896;28;20466;-72
2022/01/26 11:01:29;;;;;;;37.30;14.37;;;1.80;99.90;;;;;;5027431;28;20472;-72
2022/01/26 11:03:55;;;;;;;34.60;14.80;;;1.80;99.90;;;;;;5027474;28;20204;-72
2022/01/26 11:06:21;;;;;;;33.07;14.80;;;2.20;99.90;;;;;;5027881;28;20178;-71
2022/01/26 11:08:48;;;;;;;38.20;15.77;;;1.90;99.90;;;;;;5028739;28;20842;-72
2022/01/26 11:11:23;;;;;;;36.40;15.17;;;1.90;99.90;;;;;;5027423;28;20243;-71
2022/01/26 11:13:49;;;;;;;33.20;15.73;;;2.30;99.90;;;;;;5036630;28;20455;-71
2022/01/26 11:16:18;;;;;;;38.23;15.53;;;2.00;99.90;;;;;;5027708;28;20466;-72
2022/01/26 11:18:52;;;;;;;39.37;15.43;;;2.00;99.90;;;;;;5035073;28;20424;-73
2022/01/26 11:21:28;;;;;;;33.33;14.80;;;2.00;99.90;;;;;;5028351;28;20827;-72
2022/01/26 11:24:10;;;;;;;35.43;15.40;;;2.00;99.90;;;;;;5026390;28;20431;-72
2022/01/26 11:26:38;;;;;;;31.50;15.33;;;2.10;99.90;;;;;;5027690;28;20429;-72
2022/01/26 11:29:18;;;;;;;34.20;14.60;;;2.10;99.90;;;;;;5026991;28;20436;-71
2022/01/26 11:31:44;;;;;;;32.30;14.37;;;2.20;99.90;;;;;;5025604;28;20447;-72
2022/01/26 11:34:11;;;;;;;39.10;14.80;;;2.20;99.90;;;;;;5027344;28;20491;-72
2022/01/26 11:36:42;;;;;;;32.60;14.70;;;2.20;99.90;;;;;;5027990;28;20432;-73
2022/01/26 11:42:25;;;;;;;39.80;14.37;;;2.20;99.90;;;;;;5031735;28;20936;-71
2022/01/26 11:45:05;;;;;;;32.80;13.73;;;1.90;99.90;;;;;;5032239;28;20519;-73
2022/01/26 11:47:32;;;;;;;27.00;12.63;;;2.50;99.90;;;;;;5031912;28;20928;-74
2022/01/26 11:50:08;;;;;;;21.97;12.03;;;2.10;99.90;;;;;;5031254;28;20447;-72
2022/01/26 11:52:40;;;;;;;27.33;13.60;;;2.20;99.90;;;;;;5031871;28;20451;-72
2022/01/26 11:55:23;;;;;;;22.20;11.13;;;2.10;99.90;;;;;;5040206;28;20911;-72
2022/01/26 11:57:51;;;;;;;22.30;11.17;;;2.50;99.90;;;;;;5047329;28;20535;-72
2022/01/26 12:03:36;;;;;;;23.23;11.20;;;2.20;99.90;;;;;;5031124;28;20432;-72
2022/01/26 12:06:02;;;;;;;22.07;10.87;;;2.60;99.90;;;;;;5030751;28;20421;-72
2022/01/26 12:08:30;;;;;;;17.70;9.73;;;2.30;99.90;;;;;;5029508;28;20447;-72
2022/01/26 12:10:56;;;;;;;21.33;11.30;;;2.40;99.90;;;;;;5029770;28;20448;-72
2022/01/26 12:13:26;;;;;;;21.40;11.10;;;2.70;99.90;;;;;;5031490;28;20464;-72
2022/01/26 12:15:56;;;;;;;22.20;10.33;;;2.60;99.90;;;;;;5030382;28;20173;-71
2022/01/26 12:41:17;;;;;;;29.23;11.73;;;2.70;99.90;;;;;;5021740;28;20444;-70
2022/01/26 12:43:56;;;;;;;23.20;10.63;;;2.90;99.90;;;;;;5009845;28;20501;-72
2022/01/26 12:46:25;;;;;;;24.20;12.10;;;2.70;99.90;;;;;;5028125;28;20842;-71
2022/01/26 12:49:05;;;;;;;25.20;13.10;;;2.70;99.90;;;;;;5030537;28;20420;-71
2022/01/26 12:51:47;;;;;;;21.03;12.73;;;2.70;99.90;;;;;;5029068;28;20475;-71
2022/01/26 12:54:13;;;;;;;27.70;13.43;;;2.70;99.90;;;;;;5038519;28;20430;-70
2022/01/26 12:56:39;;;;;;;26.37;12.33;;;2.70;99.90;;;;;;5028089;28;20421;-72
2022/01/26 12:59:05;;;;;;;21.07;12.07;;;3.20;99.90;;;;;;5028620;28;20440;-71
2022/01/26 13:01:32;;;;;;;22.97;12.67;;;2.70;99.90;;;;;;5030262;28;20210;-71
2022/01/26 13:03:59;;;;;;;22.60;12.50;;;3.20;99.90;;;;;;5029513;28;20834;-72
2022/01/26 13:06:37;;;;;;;21.73;13.13;;;3.10;99.90;;;;;;5031237;28;20724;-72
2022/01/26 13:09:18;;;;;;;25.60;13.10;;;2.90;99.90;;;;;;5027956;28;20877;-72
2022/01/26 13:11:50;;;;;;;23.40;13.50;;;2.90;99.90;;;;;;5029361;28;20441;-72
2022/01/26 13:14:30;;;;;;;25.10;12.70;;;2.90;99.90;;;;;;5030708;28;20782;-72
2022/01/26 13:17:10;;;;;;;27.47;14.50;;;2.90;99.90;;;;;;5029819;28;20416;-71
2022/01/26 13:20:43;;;;;;;22.00;12.73;;;2.90;99.90;;;;;;5029573;28;20814;-71
2022/01/26 13:25:34;;;;;;;27.90;13.57;;;3.30;99.90;;;;;;5030886;28;20444;-72
2022/01/26 13:28:22;;;;;;;25.73;13.57;;;2.90;99.90;;;;;;5033071;28;20468;-71
2022/01/26 13:33:59;;;;;;;26.63;13.97;;;3.00;99.90;;;;;;5030203;28;20456;-71
2022/01/26 13:41:51;;;;;;;24.77;14.03;;;3.00;99.90;;;;;;5029022;28;20675;-71
2022/01/26 13:54:50;;;;;;;18.03;10.70;;;3.10;99.90;;;;;;5040073;28;20964;-71
2022/01/26 13:57:42;;;;;;;25.53;12.07;;;3.40;99.90;;;;;;5047219;28;20464;-72
2022/01/26 14:00:06;;;;;;;21.60;11.37;;;3.40;99.90;;;;;;5035714;28;20428;-72
2022/01/26 14:02:33;;;;;;;20.47;11.60;;;2.90;99.90;;;;;;5025136;28;20448;-71
2022/01/26 14:04:58;;;;;;;24.50;12.10;;;2.80;99.90;;;;;;5023512;28;20432;-72
2022/01/26 14:07:24;;;;;;;23.63;12.37;;;3.00;99.90;;;;;;5029145;28;20428;-72
2022/01/26 14:09:49;;;;;;;24.30;12.00;;;3.30;99.90;;;;;;5029497;28;20269;-72
2022/01/26 14:12:20;;;;;;;22.80;12.70;;;2.80;99.90;;;;;;5028999;28;20304;-71
2022/01/26 14:14:51;;;;;;;25.07;12.73;;;2.80;99.90;;;;;;5028655;28;20239;-73
2022/01/26 14:17:26;;;;;;;24.00;12.73;;;2.80;99.90;;;;;;5026502;28;20855;-72
2022/01/26 14:27:51;;;;;;;29.83;13.13;;;3.30;99.90;;;;;;5028825;28;20432;-72
2022/01/26 14:30:51;;;;;;;21.40;10.43;;;3.10;99.90;;;;;;5028294;28;20174;-72
2022/01/26 14:33:36;;;;;;;19.30;9.97;;;2.80;99.90;;;;;;5028958;28;20563;-72
2022/01/26 14:53:00;;;;;;;25.10;11.40;;;2.90;99.90;;;;;;5029230;28;21047;-70
2022/01/26 15:08:46;;;;;;;18.33;10.07;;;3.00;99.90;;;;;;5029554;28;20977;-72
2022/01/26 15:30:39;;;;;;;29.00;14.50;;;2.90;99.90;;;;;;5032946;28;20545;-72
2022/01/26 15:41:11;;;;;;;20.10;10.90;;;2.70;99.90;;;;;;5032202;28;20418;-72
2022/01/26 15:49:07;;;;;;;17.47;9.10;;;2.70;99.90;;;;;;5032297;28;20447;-72
2022/01/26 15:51:50;;;;;;;15.23;9.23;;;2.70;99.90;;;;;;5029568;28;20542;-71
2022/01/26 15:57:25;;;;;;;16.20;8.80;;;3.10;99.90;;;;;;5035734;28;20877;-72
2022/01/26 16:21:17;;;;;;;19.23;10.83;;;2.80;99.90;;;;;;5031462;28;20523;-72
2022/01/26 16:27:21;;;;;;;22.30;10.90;;;3.10;99.90;;;;;;5029967;28;20427;-72
2022/01/26 16:35:16;;;;;;;19.90;12.97;;;2.70;99.90;;;;;;5030834;28;20442;-71
2022/01/26 16:38:01;;;;;;;20.00;9.70;;;3.10;99.90;;;;;;5030360;28;20511;-72
2022/01/26 17:02:51;;;;;;;25.73;13.57;;;2.80;99.90;;;;;;5030364;28;20498;-73
2022/01/26 17:34:36;;;;;;;23.33;13.70;;;2.80;99.90;;;;;;5029686;28;20794;-72
2022/01/26 17:43:27;;;;;;;24.13;12.70;;;2.80;99.90;;;;;;5029462;28;20978;-71
2022/01/26 18:14:43;;;;;;;28.80;14.73;;;2.60;99.90;;;;;;4984771;28;20465;-71
2022/01/26 18:16:29;;;;;;;30.13;17.07;;;5.30;99.90;;;;;;5014277;28;20436;-71
2022/01/26 18:46:19;;;;;;;26.60;14.90;;;2.40;99.90;;;;;;5028371;28;20443;-71
2022/01/26 18:49:18;;;;;;;25.10;13.97;;;2.40;99.90;;;;;;5028214;28;20547;-71
2022/01/26 18:51:53;;;;;;;26.97;14.40;;;2.40;99.90;;;;;;5027504;28;20502;-73
2022/01/26 18:54:24;;;;;;;24.90;13.60;;;2.40;99.90;;;;;;5036891;28;20561;-71
2022/01/26 18:56:50;;;;;;;26.77;15.43;;;;;;;;;;5041234;28;20443;-70
2022/01/26 18:59:17;;;;;;;29.53;16.40;;;2.30;99.90;;;;;;5030803;28;20482;-71